Midville, Georgia
Current Conditions -  °F | °C
As of 12:15 PM on Thursday 27 Nov 2014 (Local Time) from KSBO Reporting Station
Scattered Clouds Scattered Clouds  
Wind Chill: 54°   Ceiling: Unl
Heat Index: 54°   Visibility: 10mi
Dew Point: 36°   Wind: 16mph
Humidity: 51%   Direction: 310°NW
Pressure: 30.23"   Gusts: 24mph
Location:  32.82°N, 82.23°W
Report Text: KSBO 271715Z AUTO 31014G21KT 10SM SCT055 12/02 A3023 RMK AO2
Loading
Personal Weather Stations






























Interactive Weather Map New forecast layout! Learn more

10-Day Weather Forecast

Advertisements
Track Severe Weather on mobile